sensor_id;sensor_type;location;lat;lon;timestamp;temperature;humidity
28837;DHT22;50669;50.982;11.022;2023-02-28T00:01:19;1.00;99.90
28837;DHT22;50669;50.982;11.022;2023-02-28T00:03:45;1.00;99.90
28837;DHT22;50669;50.982;11.022;2023-02-28T00:06:13;1.00;99.90
28837;DHT22;50669;50.982;11.022;2023-02-28T00:08:39;0.90;99.90
28837;DHT22;50669;50.982;11.022;2023-02-28T00:11:07;0.90;99.90
28837;DHT22;50669;50.982;11.022;2023-02-28T00:13:35;0.90;99.90
28837;DHT22;50669;50.982;11.022;2023-02-28T00:16:04;0.90;99.90
28837;DHT22;50669;50.982;11.022;2023-02-28T00:18:30;1.00;99.90
28837;DHT22;50669;50.982;11.022;2023-02-28T00:20:56;0.90;99.90
28837;DHT22;50669;50.982;11.022;2023-02-28T00:23:22;0.90;99.90
28837;DHT22;50669;50.982;11.022;2023-02-28T00:25:48;0.90;99.90
28837;DHT22;50669;50.982;11.022;2023-02-28T00:28:17;0.90;99.90
28837;DHT22;50669;50.982;11.022;2023-02-28T00:30:42;0.90;99.90
28837;DHT22;50669;50.982;11.022;2023-02-28T00:33:12;0.90;99.90
28837;DHT22;50669;50.982;11.022;2023-02-28T00:35:38;0.90;99.90
28837;DHT22;50669;50.982;11.022;2023-02-28T00:38:04;0.90;99.90
28837;DHT22;50669;50.982;11.022;2023-02-28T00:40:30;0.90;99.90
28837;DHT22;50669;50.982;11.022;2023-02-28T00:42:57;0.90;99.90
28837;DHT22;50669;50.982;11.022;2023-02-28T00:45:23;0.80;99.90
28837;DHT22;50669;50.982;11.022;2023-02-28T00:47:51;0.90;99.90
28837;DHT22;50669;50.982;11.022;2023-02-28T00:50:19;0.80;99.90
28837;DHT22;50669;50.982;11.022;2023-02-28T00:52:48;0.80;99.90
28837;DHT22;50669;50.982;11.022;2023-02-28T00:55:13;0.80;99.90
28837;DHT22;50669;50.982;11.022;2023-02-28T00:57:39;0.80;99.90
28837;DHT22;50669;50.982;11.022;2023-02-28T01:00:09;0.80;99.90
28837;DHT22;50669;50.982;11.022;2023-02-28T01:02:37;0.90;99.90
28837;DHT22;50669;50.982;11.022;2023-02-28T01:05:03;0.90;99.90
28837;DHT22;50669;50.982;11.022;2023-02-28T01:07:29;0.90;99.90
28837;DHT22;50669;50.982;11.022;2023-02-28T01:09:57;0.80;99.90
28837;DHT22;50669;50.982;11.022;2023-02-28T01:12:23;0.80;99.90
28837;DHT22;50669;50.982;11.022;2023-02-28T01:14:51;0.90;99.90
28837;DHT22;50669;50.982;11.022;2023-02-28T01:17:21;0.90;99.90
28837;DHT22;50669;50.982;11.022;2023-02-28T01:19:47;0.90;99.90
28837;DHT22;50669;50.982;11.022;2023-02-28T01:22:13;0.90;99.90
28837;DHT22;50669;50.982;11.022;2023-02-28T01:24:38;0.90;99.90
28837;DHT22;50669;50.982;11.022;2023-02-28T01:27:04;0.90;99.90
28837;DHT22;50669;50.982;11.022;2023-02-28T01:29:29;0.90;99.90
28837;DHT22;50669;50.982;11.022;2023-02-28T01:31:55;0.90;99.90
28837;DHT22;50669;50.982;11.022;2023-02-28T01:34:22;0.90;99.90
28837;DHT22;50669;50.982;11.022;2023-02-28T01:36:48;0.90;99.90
28837;DHT22;50669;50.982;11.022;2023-02-28T01:39:13;0.90;99.90
28837;DHT22;50669;50.982;11.022;2023-02-28T01:41:41;0.90;99.90
28837;DHT22;50669;50.982;11.022;2023-02-28T01:47:13;0.90;99.90
28837;DHT22;50669;50.982;11.022;2023-02-28T01:49:40;0.80;99.90
28837;DHT22;50669;50.982;11.022;2023-02-28T01:52:06;0.90;99.90
28837;DHT22;50669;50.982;11.022;2023-02-28T01:54:35;0.90;99.90
28837;DHT22;50669;50.982;11.022;2023-02-28T01:57:07;0.90;99.90
28837;DHT22;50669;50.982;11.022;2023-02-28T02:02:10;0.90;99.90
28837;DHT22;50669;50.982;11.022;2023-02-28T02:04:50;0.90;99.90
28837;DHT22;50669;50.982;11.022;2023-02-28T02:07:19;0.90;99.90
28837;DHT22;50669;50.982;11.022;2023-02-28T02:09:45;1.00;99.90
28837;DHT22;50669;50.982;11.022;2023-02-28T02:12:49;0.90;99.90
28837;DHT22;50669;50.982;11.022;2023-02-28T02:15:30;0.90;99.90
28837;DHT22;50669;50.982;11.022;2023-02-28T02:18:04;0.90;99.90
28837;DHT22;50669;50.982;11.022;2023-02-28T02:34:27;0.90;99.90
28837;DHT22;50669;50.982;11.022;2023-02-28T02:45:07;0.80;99.90
28837;DHT22;50669;50.982;11.022;2023-02-28T02:47:38;0.90;99.90
28837;DHT22;50669;50.982;11.022;2023-02-28T02:50:11;0.90;99.90
28837;DHT22;50669;50.982;11.022;2023-02-28T02:52:42;0.80;99.90
28837;DHT22;50669;50.982;11.022;2023-02-28T02:55:13;0.80;99.90
28837;DHT22;50669;50.982;11.022;2023-02-28T02:57:54;0.80;99.90
28837;DHT22;50669;50.982;11.022;2023-02-28T03:00:41;0.80;99.90
28837;DHT22;50669;50.982;11.022;2023-02-28T03:03:13;0.90;99.90
28837;DHT22;50669;50.982;11.022;2023-02-28T03:05:46;0.90;99.90
28837;DHT22;50669;50.982;11.022;2023-02-28T03:08:13;0.90;99.90
28837;DHT22;50669;50.982;11.022;2023-02-28T03:10:44;0.90;99.90
28837;DHT22;50669;50.982;11.022;2023-02-28T03:16:34;0.80;99.90
28837;DHT22;50669;50.982;11.022;2023-02-28T03:24:56;0.90;99.90
28837;DHT22;50669;50.982;11.022;2023-02-28T03:27:39;0.90;99.90
28837;DHT22;50669;50.982;11.022;2023-02-28T03:30:24;1.00;99.90
28837;DHT22;50669;50.982;11.022;2023-02-28T03:35:29;1.00;99.90
28837;DHT22;50669;50.982;11.022;2023-02-28T03:38:05;1.00;99.90
28837;DHT22;50669;50.982;11.022;2023-02-28T03:40:33;0.90;99.90
28837;DHT22;50669;50.982;11.022;2023-02-28T03:43:12;0.90;99.90
28837;DHT22;50669;50.982;11.022;2023-02-28T03:45:39;0.90;99.90
28837;DHT22;50669;50.982;11.022;2023-02-28T03:48:20;0.90;99.90
28837;DHT22;50669;50.982;11.022;2023-02-28T03:50:54;0.90;99.90
28837;DHT22;50669;50.982;11.022;2023-02-28T03:53:39;0.90;99.90
28837;DHT22;50669;50.982;11.022;2023-02-28T03:56:22;0.90;99.90
28837;DHT22;50669;50.982;11.022;2023-02-28T03:58:58;0.90;99.90
28837;DHT22;50669;50.982;11.022;2023-02-28T04:04:01;0.90;99.90
28837;DHT22;50669;50.982;11.022;2023-02-28T04:06:27;0.90;99.90
28837;DHT22;50669;50.982;11.022;2023-02-28T04:08:56;0.90;99.90
28837;DHT22;50669;50.982;11.022;2023-02-28T04:11:34;0.90;99.90
28837;DHT22;50669;50.982;11.022;2023-02-28T04:14:04;0.90;99.90
28837;DHT22;50669;50.982;11.022;2023-02-28T04:16:31;0.90;99.90
28837;DHT22;50669;50.982;11.022;2023-02-28T04:18:57;1.00;99.90
28837;DHT22;50669;50.982;11.022;2023-02-28T04:21:29;1.00;99.90
28837;DHT22;50669;50.982;11.022;2023-02-28T04:23:55;1.00;99.90
28837;DHT22;50669;50.982;11.022;2023-02-28T04:26:35;1.00;99.90
28837;DHT22;50669;50.982;11.022;2023-02-28T04:29:07;1.00;99.90
28837;DHT22;50669;50.982;11.022;2023-02-28T04:31:33;1.00;99.90
28837;DHT22;50669;50.982;11.022;2023-02-28T04:33:59;1.00;99.90
28837;DHT22;50669;50.982;11.022;2023-02-28T04:36:25;1.00;99.90
28837;DHT22;50669;50.982;11.022;2023-02-28T04:38:53;1.00;99.90
28837;DHT22;50669;50.982;11.022;2023-02-28T04:41:19;1.00;99.90
28837;DHT22;50669;50.982;11.022;2023-02-28T04:43:45;1.00;99.90
28837;DHT22;50669;50.982;11.022;2023-02-28T04:46:11;1.00;99.90
28837;DHT22;50669;50.982;11.022;2023-02-28T04:48:40;1.00;99.90
28837;DHT22;50669;50.982;11.022;2023-02-28T04:51:08;1.00;99.90
28837;DHT22;50669;50.982;11.022;2023-02-28T04:53:37;0.90;99.90
28837;DHT22;50669;50.982;11.022;2023-02-28T04:56:04;0.90;99.90
28837;DHT22;50669;50.982;11.022;2023-02-28T04:58:34;0.90;99.90
28837;DHT22;50669;50.982;11.022;2023-02-28T05:01:16;0.80;99.90
28837;DHT22;50669;50.982;11.022;2023-02-28T05:03:43;0.80;99.90
28837;DHT22;50669;50.982;11.022;2023-02-28T05:06:14;0.80;99.90
28837;DHT22;50669;50.982;11.022;2023-02-28T05:08:41;0.90;99.90
28837;DHT22;50669;50.982;11.022;2023-02-28T05:11:13;0.80;99.90
28837;DHT22;50669;50.982;11.022;2023-02-28T05:13:39;0.80;99.90
28837;DHT22;50669;50.982;11.022;2023-02-28T05:16:05;0.80;99.90
28837;DHT22;50669;50.982;11.022;2023-02-28T05:18:30;0.80;99.90
28837;DHT22;50669;50.982;11.022;2023-02-28T05:20:58;0.80;99.90
28837;DHT22;50669;50.982;11.022;2023-02-28T05:23:26;0.80;99.90
28837;DHT22;50669;50.982;11.022;2023-02-28T05:25:55;0.80;99.90
28837;DHT22;50669;50.982;11.022;2023-02-28T05:28:21;0.70;99.90
28837;DHT22;50669;50.982;11.022;2023-02-28T05:30:49;0.70;99.90
28837;DHT22;50669;50.982;11.022;2023-02-28T05:33:15;0.70;99.90
28837;DHT22;50669;50.982;11.022;2023-02-28T05:35:43;0.70;99.90
28837;DHT22;50669;50.982;11.022;2023-02-28T05:38:11;0.70;99.90
28837;DHT22;50669;50.982;11.022;2023-02-28T05:40:39;0.60;99.90
28837;DHT22;50669;50.982;11.022;2023-02-28T05:43:10;0.60;99.90
28837;DHT22;50669;50.982;11.022;2023-02-28T05:45:38;0.50;99.90
28837;DHT22;50669;50.982;11.022;2023-02-28T05:48:04;0.60;99.90
28837;DHT22;50669;50.982;11.022;2023-02-28T05:50:30;0.60;99.90
28837;DHT22;50669;50.982;11.022;2023-02-28T05:52:55;0.60;99.90
28837;DHT22;50669;50.982;11.022;2023-02-28T05:55:21;0.60;99.90
28837;DHT22;50669;50.982;11.022;2023-02-28T05:57:49;0.60;99.90
28837;DHT22;50669;50.982;11.022;2023-02-28T06:00:15;0.50;99.90
28837;DHT22;50669;50.982;11.022;2023-02-28T06:02:45;0.50;99.90
28837;DHT22;50669;50.982;11.022;2023-02-28T06:05:14;0.50;99.90
28837;DHT22;50669;50.982;11.022;2023-02-28T06:07:40;0.50;99.90
28837;DHT22;50669;50.982;11.022;2023-02-28T06:10:08;0.40;99.90
28837;DHT22;50669;50.982;11.022;2023-02-28T06:12:34;0.40;99.90
28837;DHT22;50669;50.982;11.022;2023-02-28T06:15:00;0.40;99.90
28837;DHT22;50669;50.982;11.022;2023-02-28T06:17:28;0.40;99.90
28837;DHT22;50669;50.982;11.022;2023-02-28T06:19:56;0.40;99.90
28837;DHT22;50669;50.982;11.022;2023-02-28T06:22:21;0.40;99.90
28837;DHT22;50669;50.982;11.022;2023-02-28T06:24:47;0.30;99.90
28837;DHT22;50669;50.982;11.022;2023-02-28T06:27:13;0.30;99.90
28837;DHT22;50669;50.982;11.022;2023-02-28T06:29:38;0.40;99.90
28837;DHT22;50669;50.982;11.022;2023-02-28T06:32:05;0.40;99.90
28837;DHT22;50669;50.982;11.022;2023-02-28T06:34:31;0.50;99.90
28837;DHT22;50669;50.982;11.022;2023-02-28T06:36:59;0.50;99.90
28837;DHT22;50669;50.982;11.022;2023-02-28T06:39:29;0.60;99.90
28837;DHT22;50669;50.982;11.022;2023-02-28T06:41:55;0.60;99.90
28837;DHT22;50669;50.982;11.022;2023-02-28T06:44:26;0.60;99.90
28837;DHT22;50669;50.982;11.022;2023-02-28T06:46:53;0.60;99.90
28837;DHT22;50669;50.982;11.022;2023-02-28T06:49:21;1.10;99.90
28837;DHT22;50669;50.982;11.022;2023-02-28T06:51:51;3.30;99.90
28837;DHT22;50669;50.982;11.022;2023-02-28T06:54:17;6.00;99.90
28837;DHT22;50669;50.982;11.022;2023-02-28T06:56:42;8.30;99.90
28837;DHT22;50669;50.982;11.022;2023-02-28T06:59:08;10.10;99.90
28837;DHT22;50669;50.982;11.022;2023-02-28T07:01:39;11.20;99.90
28837;DHT22;50669;50.982;11.022;2023-02-28T07:04:09;12.10;99.90
28837;DHT22;50669;50.982;11.022;2023-02-28T07:06:35;13.20;99.90
28837;DHT22;50669;50.982;11.022;2023-02-28T07:09:07;14.10;99.90
28837;DHT22;50669;50.982;11.022;2023-02-28T07:11:33;14.80;99.90
28837;DHT22;50669;50.982;11.022;2023-02-28T07:13:59;15.40;99.90
28837;DHT22;50669;50.982;11.022;2023-02-28T07:16:27;15.80;99.90
28837;DHT22;50669;50.982;11.022;2023-02-28T07:18:53;16.30;99.90
28837;DHT22;50669;50.982;11.022;2023-02-28T07:21:20;16.60;99.90
28837;DHT22;50669;50.982;11.022;2023-02-28T07:23:45;16.90;99.90
28837;DHT22;50669;50.982;11.022;2023-02-28T07:26:14;17.10;99.90
28837;DHT22;50669;50.982;11.022;2023-02-28T07:28:44;17.30;99.90
28837;DHT22;50669;50.982;11.022;2023-02-28T07:31:11;17.50;99.90
28837;DHT22;50669;50.982;11.022;2023-02-28T07:33:37;17.60;99.90
28837;DHT22;50669;50.982;11.022;2023-02-28T07:36:08;17.70;99.90
28837;DHT22;50669;50.982;11.022;2023-02-28T07:38:36;17.80;99.90
28837;DHT22;50669;50.982;11.022;2023-02-28T07:41:03;17.90;99.90
28837;DHT22;50669;50.982;11.022;2023-02-28T07:43:34;18.00;99.90
28837;DHT22;50669;50.982;11.022;2023-02-28T07:46:09;18.00;99.90
28837;DHT22;50669;50.982;11.022;2023-02-28T07:48:37;18.10;99.90
28837;DHT22;50669;50.982;11.022;2023-02-28T07:51:03;18.20;99.90
28837;DHT22;50669;50.982;11.022;2023-02-28T07:53:32;18.20;99.90
28837;DHT22;50669;50.982;11.022;2023-02-28T07:55:59;18.30;99.90
28837;DHT22;50669;50.982;11.022;2023-02-28T07:58:29;18.30;99.90
28837;DHT22;50669;50.982;11.022;2023-02-28T08:00:55;18.30;99.90
28837;DHT22;50669;50.982;11.022;2023-02-28T08:03:24;18.30;99.90
28837;DHT22;50669;50.982;11.022;2023-02-28T08:05:52;18.40;99.90
28837;DHT22;50669;50.982;11.022;2023-02-28T08:08:18;18.40;99.90
28837;DHT22;50669;50.982;11.022;2023-02-28T08:10:44;18.40;99.90
28837;DHT22;50669;50.982;11.022;2023-02-28T08:13:09;18.40;99.90
28837;DHT22;50669;50.982;11.022;2023-02-28T08:15:35;18.40;99.90
28837;DHT22;50669;50.982;11.022;2023-02-28T08:18:02;18.40;99.90
28837;DHT22;50669;50.982;11.022;2023-02-28T08:20:27;18.50;99.90
28837;DHT22;50669;50.982;11.022;2023-02-28T08:22:53;18.50;99.90
28837;DHT22;50669;50.982;11.022;2023-02-28T08:25:19;18.50;99.90
28837;DHT22;50669;50.982;11.022;2023-02-28T08:27:44;18.50;99.90
28837;DHT22;50669;50.982;11.022;2023-02-28T08:30:14;18.50;99.90
28837;DHT22;50669;50.982;11.022;2023-02-28T08:32:40;18.50;99.90
28837;DHT22;50669;50.982;11.022;2023-02-28T08:35:09;18.50;99.90
28837;DHT22;50669;50.982;11.022;2023-02-28T08:37:35;18.50;99.90
28837;DHT22;50669;50.982;11.022;2023-02-28T08:40:03;18.50;99.90
28837;DHT22;50669;50.982;11.022;2023-02-28T08:42:29;18.50;99.70
28837;DHT22;50669;50.982;11.022;2023-02-28T08:44:57;18.50;99.60
28837;DHT22;50669;50.982;11.022;2023-02-28T08:47:23;18.50;99.50
28837;DHT22;50669;50.982;11.022;2023-02-28T08:49:51;18.50;99.40
28837;DHT22;50669;50.982;11.022;2023-02-28T08:52:19;18.50;99.20
28837;DHT22;50669;50.982;11.022;2023-02-28T08:54:47;18.50;99.10
28837;DHT22;50669;50.982;11.022;2023-02-28T08:57:13;18.50;99.00
28837;DHT22;50669;50.982;11.022;2023-02-28T08:59:38;18.50;98.90
28837;DHT22;50669;50.982;11.022;2023-02-28T09:02:04;18.50;98.80
28837;DHT22;50669;50.982;11.022;2023-02-28T09:04:32;18.50;98.70
28837;DHT22;50669;50.982;11.022;2023-02-28T09:06:58;18.50;98.50
28837;DHT22;50669;50.982;11.022;2023-02-28T09:09:24;18.50;98.40
28837;DHT22;50669;50.982;11.022;2023-02-28T09:11:52;18.60;98.40
28837;DHT22;50669;50.982;11.022;2023-02-28T09:14:20;18.60;98.30
28837;DHT22;50669;50.982;11.022;2023-02-28T09:16:46;18.50;98.10
28837;DHT22;50669;50.982;11.022;2023-02-28T09:19:12;18.50;98.10
28837;DHT22;50669;50.982;11.022;2023-02-28T09:21:37;18.50;98.00
28837;DHT22;50669;50.982;11.022;2023-02-28T09:24:03;18.50;97.90
28837;DHT22;50669;50.982;11.022;2023-02-28T09:26:29;18.60;97.80
28837;DHT22;50669;50.982;11.022;2023-02-28T09:28:57;18.50;97.70
28837;DHT22;50669;50.982;11.022;2023-02-28T09:31:27;18.60;97.60
28837;DHT22;50669;50.982;11.022;2023-02-28T09:33:56;18.50;97.50
28837;DHT22;50669;50.982;11.022;2023-02-28T09:36:23;18.50;97.50
28837;DHT22;50669;50.982;11.022;2023-02-28T09:38:51;18.50;97.40
28837;DHT22;50669;50.982;11.022;2023-02-28T09:41:39;18.50;97.20
28837;DHT22;50669;50.982;11.022;2023-02-28T09:44:31;18.60;97.20
28837;DHT22;50669;50.982;11.022;2023-02-28T09:47:11;18.60;97.10
28837;DHT22;50669;50.982;11.022;2023-02-28T09:49:45;18.50;97.00
28837;DHT22;50669;50.982;11.022;2023-02-28T09:52:38;18.50;96.90
28837;DHT22;50669;50.982;11.022;2023-02-28T09:57:49;18.60;96.80
28837;DHT22;50669;50.982;11.022;2023-02-28T10:00:21;18.60;96.70
28837;DHT22;50669;50.982;11.022;2023-02-28T10:05:43;18.50;96.60
28837;DHT22;50669;50.982;11.022;2023-02-28T10:08:17;18.50;96.50
28837;DHT22;50669;50.982;11.022;2023-02-28T10:10:53;18.50;96.40
28837;DHT22;50669;50.982;11.022;2023-02-28T10:15:48;18.50;96.30
28837;DHT22;50669;50.982;11.022;2023-02-28T10:18:25;18.50;96.20
28837;DHT22;50669;50.982;11.022;2023-02-28T10:20:56;18.60;96.20
28837;DHT22;50669;50.982;11.022;2023-02-28T10:23:34;18.50;96.10
28837;DHT22;50669;50.982;11.022;2023-02-28T10:26:11;18.60;96.00
28837;DHT22;50669;50.982;11.022;2023-02-28T10:28:37;18.50;95.90
28837;DHT22;50669;50.982;11.022;2023-02-28T10:31:03;18.50;95.90
28837;DHT22;50669;50.982;11.022;2023-02-28T10:33:32;18.50;95.80
28837;DHT22;50669;50.982;11.022;2023-02-28T10:35:59;18.60;96.10
28837;DHT22;50669;50.982;11.022;2023-02-28T10:38:33;18.50;95.70
28837;DHT22;50669;50.982;11.022;2023-02-28T10:41:14;18.60;95.70
28837;DHT22;50669;50.982;11.022;2023-02-28T10:43:43;18.60;95.60
28837;DHT22;50669;50.982;11.022;2023-02-28T10:48:59;18.50;95.40
28837;DHT22;50669;50.982;11.022;2023-02-28T10:51:26;18.60;95.40
28837;DHT22;50669;50.982;11.022;2023-02-28T10:53:59;18.50;95.30
28837;DHT22;50669;50.982;11.022;2023-02-28T10:56:25;18.50;95.30
28837;DHT22;50669;50.982;11.022;2023-02-28T11:01:48;18.60;95.20
28837;DHT22;50669;50.982;11.022;2023-02-28T11:07:19;18.50;95.00
28837;DHT22;50669;50.982;11.022;2023-02-28T11:09:48;18.60;95.00
28837;DHT22;50669;50.982;11.022;2023-02-28T11:12:41;18.60;95.00
28837;DHT22;50669;50.982;11.022;2023-02-28T11:15:32;18.60;94.90
28837;DHT22;50669;50.982;11.022;2023-02-28T11:20:41;18.60;94.80
28837;DHT22;50669;50.982;11.022;2023-02-28T11:23:13;18.60;94.70
28837;DHT22;50669;50.982;11.022;2023-02-28T11:25:46;18.60;94.70
28837;DHT22;50669;50.982;11.022;2023-02-28T11:33:50;18.60;94.40
28837;DHT22;50669;50.982;11.022;2023-02-28T11:39:10;18.60;94.30
28837;DHT22;50669;50.982;11.022;2023-02-28T11:41:53;18.60;94.20
28837;DHT22;50669;50.982;11.022;2023-02-28T11:47:03;18.70;94.10
28837;DHT22;50669;50.982;11.022;2023-02-28T11:58:30;18.70;93.90
28837;DHT22;50669;50.982;11.022;2023-02-28T12:12:38;18.80;93.40
28837;DHT22;50669;50.982;11.022;2023-02-28T12:28:29;19.00;93.00
28837;DHT22;50669;50.982;11.022;2023-02-28T12:31:17;19.10;92.90
28837;DHT22;50669;50.982;11.022;2023-02-28T12:33:51;19.20;92.80
28837;DHT22;50669;50.982;11.022;2023-02-28T12:36:19;19.30;92.70
28837;DHT22;50669;50.982;11.022;2023-02-28T12:39:00;19.30;92.60
28837;DHT22;50669;50.982;11.022;2023-02-28T12:44:18;19.50;92.20
28837;DHT22;50669;50.982;11.022;2023-02-28T12:46:49;19.50;92.10
28837;DHT22;50669;50.982;11.022;2023-02-28T12:49:25;19.60;92.10
28837;DHT22;50669;50.982;11.022;2023-02-28T12:51:53;19.60;92.00
28837;DHT22;50669;50.982;11.022;2023-02-28T12:56:57;19.80;91.80
28837;DHT22;50669;50.982;11.022;2023-02-28T13:10:53;19.80;91.50
28837;DHT22;50669;50.982;11.022;2023-02-28T13:13:24;19.80;91.40
28837;DHT22;50669;50.982;11.022;2023-02-28T13:16:04;19.80;91.30
28837;DHT22;50669;50.982;11.022;2023-02-28T13:18:37;19.80;91.30
28837;DHT22;50669;50.982;11.022;2023-02-28T13:21:07;19.70;91.30
28837;DHT22;50669;50.982;11.022;2023-02-28T13:34:32;19.60;91.30
28837;DHT22;50669;50.982;11.022;2023-02-28T13:39:55;19.60;91.20
28837;DHT22;50669;50.982;11.022;2023-02-28T13:42:23;19.70;91.20
28837;DHT22;50669;50.982;11.022;2023-02-28T13:47:40;19.60;91.10
28837;DHT22;50669;50.982;11.022;2023-02-28T14:06:32;19.60;90.90
28837;DHT22;50669;50.982;11.022;2023-02-28T14:09:06;19.70;90.90
28837;DHT22;50669;50.982;11.022;2023-02-28T14:11:41;19.70;90.90
28837;DHT22;50669;50.982;11.022;2023-02-28T14:14:09;19.60;90.80
28837;DHT22;50669;50.982;11.022;2023-02-28T14:16:55;19.60;90.80
28837;DHT22;50669;50.982;11.022;2023-02-28T14:19:30;19.60;90.80
28837;DHT22;50669;50.982;11.022;2023-02-28T14:25:11;19.50;90.80
28837;DHT22;50669;50.982;11.022;2023-02-28T14:36:25;19.40;90.80
28837;DHT22;50669;50.982;11.022;2023-02-28T14:38:55;19.40;90.80
28837;DHT22;50669;50.982;11.022;2023-02-28T14:43:54;19.30;90.80
28837;DHT22;50669;50.982;11.022;2023-02-28T14:46:21;19.30;90.80
28837;DHT22;50669;50.982;11.022;2023-02-28T14:48:48;19.30;90.80
28837;DHT22;50669;50.982;11.022;2023-02-28T14:51:23;19.30;91.10
28837;DHT22;50669;50.982;11.022;2023-02-28T14:53:59;19.30;90.80
28837;DHT22;50669;50.982;11.022;2023-02-28T14:56:38;19.30;90.80
28837;DHT22;50669;50.982;11.022;2023-02-28T14:59:17;19.20;90.70
28837;DHT22;50669;50.982;11.022;2023-02-28T15:01:46;19.20;90.70
28837;DHT22;50669;50.982;11.022;2023-02-28T15:04:24;19.20;90.70
28837;DHT22;50669;50.982;11.022;2023-02-28T15:07:16;19.20;90.70
28837;DHT22;50669;50.982;11.022;2023-02-28T15:09:42;19.10;90.60
28837;DHT22;50669;50.982;11.022;2023-02-28T15:12:14;19.20;90.60
28837;DHT22;50669;50.982;11.022;2023-02-28T15:14:42;19.10;90.70
28837;DHT22;50669;50.982;11.022;2023-02-28T15:17:20;19.10;90.70
28837;DHT22;50669;50.982;11.022;2023-02-28T15:19:50;19.10;90.60
28837;DHT22;50669;50.982;11.022;2023-02-28T15:22:22;19.10;90.60
28837;DHT22;50669;50.982;11.022;2023-02-28T15:24:52;19.10;90.60
28837;DHT22;50669;50.982;11.022;2023-02-28T15:27:25;19.00;90.60
28837;DHT22;50669;50.982;11.022;2023-02-28T15:29:58;19.00;90.60
28837;DHT22;50669;50.982;11.022;2023-02-28T15:32:30;19.00;90.60
28837;DHT22;50669;50.982;11.022;2023-02-28T15:35:16;19.00;90.60
28837;DHT22;50669;50.982;11.022;2023-02-28T15:40:30;19.00;90.50
28837;DHT22;50669;50.982;11.022;2023-02-28T15:43:18;18.90;90.50
28837;DHT22;50669;50.982;11.022;2023-02-28T15:48:29;18.90;90.50
28837;DHT22;50669;50.982;11.022;2023-02-28T15:51:01;18.90;90.50
28837;DHT22;50669;50.982;11.022;2023-02-28T15:53:33;18.90;90.50
28837;DHT22;50669;50.982;11.022;2023-02-28T15:56:05;18.80;90.40
28837;DHT22;50669;50.982;11.022;2023-02-28T15:58:33;18.80;90.40
28837;DHT22;50669;50.982;11.022;2023-02-28T16:01:15;18.80;90.40
28837;DHT22;50669;50.982;11.022;2023-02-28T16:03:49;18.80;90.70
28837;DHT22;50669;50.982;11.022;2023-02-28T16:06:37;18.80;90.40
28837;DHT22;50669;50.982;11.022;2023-02-28T16:09:05;18.80;90.40
28837;DHT22;50669;50.982;11.022;2023-02-28T16:11:35;18.80;90.30
28837;DHT22;50669;50.982;11.022;2023-02-28T16:14:02;18.80;90.30
28837;DHT22;50669;50.982;11.022;2023-02-28T16:16:28;18.70;90.30
28837;DHT22;50669;50.982;11.022;2023-02-28T16:18:54;18.70;90.30
28837;DHT22;50669;50.982;11.022;2023-02-28T16:21:20;18.70;90.30
28837;DHT22;50669;50.982;11.022;2023-02-28T16:23:46;18.70;90.30
28837;DHT22;50669;50.982;11.022;2023-02-28T16:26:29;18.70;90.30
28837;DHT22;50669;50.982;11.022;2023-02-28T16:28:55;18.70;90.20
28837;DHT22;50669;50.982;11.022;2023-02-28T16:31:21;18.70;90.20
28837;DHT22;50669;50.982;11.022;2023-02-28T16:33:47;18.70;90.20
28837;DHT22;50669;50.982;11.022;2023-02-28T16:36:20;18.70;90.20
28837;DHT22;50669;50.982;11.022;2023-02-28T16:38:46;18.60;90.10
28837;DHT22;50669;50.982;11.022;2023-02-28T16:41:17;18.60;90.20
28837;DHT22;50669;50.982;11.022;2023-02-28T16:43:51;18.60;90.10
28837;DHT22;50669;50.982;11.022;2023-02-28T16:46:17;18.60;90.10
28837;DHT22;50669;50.982;11.022;2023-02-28T16:48:46;18.60;90.10
28837;DHT22;50669;50.982;11.022;2023-02-28T16:51:16;18.60;90.10
28837;DHT22;50669;50.982;11.022;2023-02-28T16:53:45;18.60;90.00
28837;DHT22;50669;50.982;11.022;2023-02-28T16:56:22;18.60;90.10
28837;DHT22;50669;50.982;11.022;2023-02-28T16:58:49;18.50;90.00
28837;DHT22;50669;50.982;11.022;2023-02-28T17:01:18;18.50;90.00
28837;DHT22;50669;50.982;11.022;2023-02-28T17:03:50;18.60;90.00
28837;DHT22;50669;50.982;11.022;2023-02-28T17:06:27;18.50;90.00
28837;DHT22;50669;50.982;11.022;2023-02-28T17:08:57;18.50;90.00
28837;DHT22;50669;50.982;11.022;2023-02-28T17:11:23;18.50;90.00
28837;DHT22;50669;50.982;11.022;2023-02-28T17:13:49;18.50;90.00
28837;DHT22;50669;50.982;11.022;2023-02-28T17:16:35;18.50;90.00
28837;DHT22;50669;50.982;11.022;2023-02-28T17:19:06;18.50;90.00
28837;DHT22;50669;50.982;11.022;2023-02-28T17:21:33;18.50;90.00
28837;DHT22;50669;50.982;11.022;2023-02-28T17:23:59;18.50;90.00
28837;DHT22;50669;50.982;11.022;2023-02-28T17:26:25;18.40;89.90
28837;DHT22;50669;50.982;11.022;2023-02-28T17:28:57;18.40;89.80
28837;DHT22;50669;50.982;11.022;2023-02-28T17:31:24;18.40;89.80
28837;DHT22;50669;50.982;11.022;2023-02-28T17:33:51;18.40;89.70
28837;DHT22;50669;50.982;11.022;2023-02-28T17:36:22;18.40;89.80
28837;DHT22;50669;50.982;11.022;2023-02-28T17:38:48;18.40;89.60
28837;DHT22;50669;50.982;11.022;2023-02-28T17:41:14;18.40;89.70
28837;DHT22;50669;50.982;11.022;2023-02-28T17:43:40;18.30;89.60
28837;DHT22;50669;50.982;11.022;2023-02-28T17:46:19;18.40;89.60
28837;DHT22;50669;50.982;11.022;2023-02-28T17:48:52;18.40;89.60
28837;DHT22;50669;50.982;11.022;2023-02-28T17:51:19;18.40;89.60
28837;DHT22;50669;50.982;11.022;2023-02-28T17:53:48;18.40;89.60
28837;DHT22;50669;50.982;11.022;2023-02-28T17:56:20;18.30;89.50
28837;DHT22;50669;50.982;11.022;2023-02-28T17:58:48;18.30;89.50
28837;DHT22;50669;50.982;11.022;2023-02-28T18:01:16;18.30;89.90
28837;DHT22;50669;50.982;11.022;2023-02-28T18:03:42;18.30;89.50
28837;DHT22;50669;50.982;11.022;2023-02-28T18:06:18;18.30;89.40
28837;DHT22;50669;50.982;11.022;2023-02-28T18:08:47;18.30;89.40
28837;DHT22;50669;50.982;11.022;2023-02-28T18:11:13;18.30;89.40
28837;DHT22;50669;50.982;11.022;2023-02-28T18:13:47;18.30;89.40
28837;DHT22;50669;50.982;11.022;2023-02-28T18:16:13;18.30;89.40
28837;DHT22;50669;50.982;11.022;2023-02-28T18:18:39;18.20;89.20
28837;DHT22;50669;50.982;11.022;2023-02-28T18:21:06;18.20;89.20
28837;DHT22;50669;50.982;11.022;2023-02-28T18:23:36;18.20;89.20
28837;DHT22;50669;50.982;11.022;2023-02-28T18:26:06;18.20;89.10
28837;DHT22;50669;50.982;11.022;2023-02-28T18:28:33;18.20;89.10
28837;DHT22;50669;50.982;11.022;2023-02-28T18:31:08;18.20;89.20
28837;DHT22;50669;50.982;11.022;2023-02-28T18:33:34;18.20;89.10
28837;DHT22;50669;50.982;11.022;2023-02-28T18:36:00;18.20;89.00